Aviation Digital Data Service (ADDS)

Output produced by METARs form (0016 UTC 20 April 2019)
found at http://www.aviationweather.gov/metar/data/
 
METAR text: BGSF 192350Z AUTO 07008KT 9999NDV NCD M07/M14 Q1004
Conditions at: BGSF (SONDRE STROMFJOR, GL) observed 2350 UTC 19 April 2019
Temperature: -7.0°C (19°F)
Dewpoint: -14.0°C ( 7°F) [RH = 57%]
Pressure (altimeter): 29.65 inches Hg (1004.0 mb)
Winds: from the ENE (70 degrees) at 9 MPH (8 knots; 4.1 m/s)
Visibility: missing
Ceiling: at least 12,000 feet AGL
Clouds: sky clear below 12,000 feet AGL
Weather: no significant weather observed at this time

METAR text: BGSF 192250Z AUTO 08006KT 9999NDV NCD M05/M15 Q1004
Conditions at: BGSF (SONDRE STROMFJOR, GL) observed 2250 UTC 19 April 2019
Temperature: -5.0°C (23°F)
Dewpoint: -15.0°C ( 5°F) [RH = 45%]
Pressure (altimeter): 29.65 inches Hg (1004.0 mb)
Winds: from the E (80 degrees) at 7 MPH (6 knots; 3.1 m/s)
Visibility: missing
Ceiling: at least 12,000 feet AGL
Clouds: sky clear below 12,000 feet AGL
Weather: no significant weather observed at this time

METAR text: BGSF 192150Z AUTO 09008KT 9999NDV NCD M03/M17 Q1004
Conditions at: BGSF (SONDRE STROMFJOR, GL) observed 2150 UTC 19 April 2019
Temperature: -3.0°C (27°F)
Dewpoint: -17.0°C ( 1°F) [RH = 33%]
Pressure (altimeter): 29.65 inches Hg (1004.0 mb)
Winds: from the E (90 degrees) at 9 MPH (8 knots; 4.1 m/s)
Visibility: missing
Ceiling: at least 12,000 feet AGL
Clouds: sky clear below 12,000 feet AGL
Weather: no significant weather observed at this time

METAR text: BGSF 192050Z AUTO 08006KT 9999NDV NCD M03/M17 Q1004
Conditions at: BGSF (SONDRE STROMFJOR, GL) observed 2050 UTC 19 April 2019
Temperature: -3.0°C (27°F)
Dewpoint: -17.0°C ( 1°F) [RH = 33%]
Pressure (altimeter): 29.65 inches Hg (1004.0 mb)
Winds: from the E (80 degrees) at 7 MPH (6 knots; 3.1 m/s)
Visibility: missing
Ceiling: at least 12,000 feet AGL
Clouds: sky clear below 12,000 feet AGL
Weather: no significant weather observed at this time

METAR text: BGSF 191950Z AUTO 08006KT 050V130 9999NDV NCD M03/M17 Q1004
Conditions at: BGSF (SONDRE STROMFJOR, GL) observed 1950 UTC 19 April 2019
Temperature: -3.0°C (27°F)
Dewpoint: -17.0°C ( 1°F) [RH = 33%]
Pressure (altimeter): 29.65 inches Hg (1004.0 mb)
Winds: from the E (80 degrees) at 7 MPH (6 knots; 3.1 m/s)
Visibility: missing
Ceiling: at least 12,000 feet AGL
Clouds: sky clear below 12,000 feet AGL
Weather: no significant weather observed at this time

METAR text: BGSF 191850Z AUTO 08005KT 030V100 9999NDV NCD M04/M19 Q1004
Conditions at: BGSF (SONDRE STROMFJOR, GL) observed 1850 UTC 19 April 2019
Temperature: -4.0°C (25°F)
Dewpoint: -19.0°C (-2°F) [RH = 30%]
Pressure (altimeter): 29.65 inches Hg (1004.0 mb)
Winds: from the E (80 degrees) at 6 MPH (5 knots; 2.6 m/s)
Visibility: missing
Ceiling: at least 12,000 feet AGL
Clouds: sky clear below 12,000 feet AGL
Weather: no significant weather observed at this time

METAR text: BGSF 191750Z AUTO VRB03KT 9999NDV NCD M04/M18 Q1005
Conditions at: BGSF (SONDRE STROMFJOR, GL) observed 1750 UTC 19 April 2019
Temperature: -4.0°C (25°F)
Dewpoint: -18.0°C (-0°F) [RH = 33%]
Pressure (altimeter): 29.68 inches Hg (1005.0 mb)
Winds: variable direction winds at 3 MPH (3 knots; 1.5 m/s)
Visibility: missing
Ceiling: at least 12,000 feet AGL
Clouds: sky clear below 12,000 feet AGL
Weather: no significant weather observed at this time

METAR text: BGSF 191650Z AUTO 18004KT 120V230 9999NDV NCD M05/M19 Q1005
Conditions at: BGSF (SONDRE STROMFJOR, GL) observed 1650 UTC 19 April 2019
Temperature: -5.0°C (23°F)
Dewpoint: -19.0°C (-2°F) [RH = 32%]
Pressure (altimeter): 29.68 inches Hg (1005.0 mb)
Winds: from the S (180 degrees) at 5 MPH (4 knots; 2.1 m/s)
Visibility: missing
Ceiling: at least 12,000 feet AGL
Clouds: sky clear below 12,000 feet AGL
Weather: no significant weather observed at this time

METAR text: BGSF 191550Z AUTO 16004KT 120V220 9999NDV NCD M06/M18 Q1006
Conditions at: BGSF (SONDRE STROMFJOR, GL) observed 1550 UTC 19 April 2019
Temperature: -6.0°C (21°F)
Dewpoint: -18.0°C (-0°F) [RH = 38%]
Pressure (altimeter): 29.70 inches Hg (1006.0 mb)
Winds: from the SSE (160 degrees) at 5 MPH (4 knots; 2.1 m/s)
Visibility: missing
Ceiling: at least 12,000 feet AGL
Clouds: sky clear below 12,000 feet AGL
Weather: no significant weather observed at this time

METAR text: BGSF 191450Z AUTO VRB03KT 9999NDV NCD M07/M18 Q1006
Conditions at: BGSF (SONDRE STROMFJOR, GL) observed 1450 UTC 19 April 2019
Temperature: -7.0°C (19°F)
Dewpoint: -18.0°C (-0°F) [RH = 41%]
Pressure (altimeter): 29.70 inches Hg (1006.0 mb)
Winds: variable direction winds at 3 MPH (3 knots; 1.5 m/s)
Visibility: missing
Ceiling: at least 12,000 feet AGL
Clouds: sky clear below 12,000 feet AGL
Weather: no significant weather observed at this time

METAR text: BGSF 191350Z AUTO VRB04KT 9999NDV NCD M08/M19 Q1007
Conditions at: BGSF (SONDRE STROMFJOR, GL) observed 1350 UTC 19 April 2019
Temperature: -8.0°C (18°F)
Dewpoint: -19.0°C (-2°F) [RH = 41%]
Pressure (altimeter): 29.73 inches Hg (1007.0 mb)
Winds: variable direction winds at 5 MPH (4 knots; 2.1 m/s)
Visibility: missing
Ceiling: at least 12,000 feet AGL
Clouds: sky clear below 12,000 feet AGL
Weather: no significant weather observed at this time

METAR text: BGSF 191250Z AUTO 06005KT 040V100 9999NDV NCD M10/M19 Q1008
Conditions at: BGSF (SONDRE STROMFJOR, GL) observed 1250 UTC 19 April 2019
Temperature: -10.0°C (14°F)
Dewpoint: -19.0°C (-2°F) [RH = 48%]
Pressure (altimeter): 29.76 inches Hg (1008.0 mb)
Winds: from the ENE (60 degrees) at 6 MPH (5 knots; 2.6 m/s)
Visibility: missing
Ceiling: at least 12,000 feet AGL
Clouds: sky clear below 12,000 feet AGL
Weather: no significant weather observed at this time

METAR text: BGSF 191150Z AUTO 09006KT 9999NDV NCD M11/M19 Q1009
Conditions at: BGSF (SONDRE STROMFJOR, GL) observed 1150 UTC 19 April 2019
Temperature: -11.0°C (12°F)
Dewpoint: -19.0°C (-2°F) [RH = 52%]
Pressure (altimeter): 29.79 inches Hg (1009.0 mb)
Winds: from the E (90 degrees) at 7 MPH (6 knots; 3.1 m/s)
Visibility: missing
Ceiling: at least 12,000 feet AGL
Clouds: sky clear below 12,000 feet AGL
Weather: no significant weather observed at this time

METAR text: BGSF 191050Z AUTO 09008KT 9999NDV NCD M12/M20 Q1009
Conditions at: BGSF (SONDRE STROMFJOR, GL) observed 1050 UTC 19 April 2019
Temperature: -12.0°C (10°F)
Dewpoint: -20.0°C (-4°F) [RH = 51%]
Pressure (altimeter): 29.79 inches Hg (1009.0 mb)
Winds: from the E (90 degrees) at 9 MPH (8 knots; 4.1 m/s)
Visibility: missing
Ceiling: at least 12,000 feet AGL
Clouds: sky clear below 12,000 feet AGL
Weather: no significant weather observed at this time

METAR text: BGSF 190950Z AUTO 08008KT 9999NDV NCD M14/M20 Q1010
Conditions at: BGSF (SONDRE STROMFJOR, GL) observed 0950 UTC 19 April 2019
Temperature: -14.0°C ( 7°F)
Dewpoint: -20.0°C (-4°F) [RH = 60%]
Pressure (altimeter): 29.82 inches Hg (1010.0 mb)
Winds: from the E (80 degrees) at 9 MPH (8 knots; 4.1 m/s)
Visibility: missing
Ceiling: at least 12,000 feet AGL
Clouds: sky clear below 12,000 feet AGL
Weather: no significant weather observed at this time

METAR text: BGSF 190850Z AUTO 08007KT 9999NDV NCD M15/M20 Q1010
Conditions at: BGSF (SONDRE STROMFJOR, GL) observed 0850 UTC 19 April 2019
Temperature: -15.0°C ( 5°F)
Dewpoint: -20.0°C (-4°F) [RH = 66%]
Pressure (altimeter): 29.82 inches Hg (1010.0 mb)
Winds: from the E (80 degrees) at 8 MPH (7 knots; 3.6 m/s)
Visibility: missing
Ceiling: at least 12,000 feet AGL
Clouds: sky clear below 12,000 feet AGL
Weather: no significant weather observed at this time

METAR text: BGSF 190750Z AUTO 07008KT 9999NDV NCD M16/M20 Q1010
Conditions at: BGSF (SONDRE STROMFJOR, GL) observed 0750 UTC 19 April 2019
Temperature: -16.0°C ( 3°F)
Dewpoint: -20.0°C (-4°F) [RH = 71%]
Pressure (altimeter): 29.82 inches Hg (1010.0 mb)
Winds: from the ENE (70 degrees) at 9 MPH (8 knots; 4.1 m/s)
Visibility: missing
Ceiling: at least 12,000 feet AGL
Clouds: sky clear below 12,000 feet AGL
Weather: no significant weather observed at this time

METAR text: BGSF 190650Z AUTO 10007KT 9999NDV NCD M15/M20 Q1010
Conditions at: BGSF (SONDRE STROMFJOR, GL) observed 0650 UTC 19 April 2019
Temperature: -15.0°C ( 5°F)
Dewpoint: -20.0°C (-4°F) [RH = 66%]
Pressure (altimeter): 29.82 inches Hg (1010.0 mb)
Winds: from the E (100 degrees) at 8 MPH (7 knots; 3.6 m/s)
Visibility: missing
Ceiling: at least 12,000 feet AGL
Clouds: sky clear below 12,000 feet AGL
Weather: no significant weather observed at this time

METAR text: BGSF 190550Z AUTO 08007KT 9999NDV NCD M15/M20 Q1010
Conditions at: BGSF (SONDRE STROMFJOR, GL) observed 0550 UTC 19 April 2019
Temperature: -15.0°C ( 5°F)
Dewpoint: -20.0°C (-4°F) [RH = 66%]
Pressure (altimeter): 29.82 inches Hg (1010.0 mb)
Winds: from the E (80 degrees) at 8 MPH (7 knots; 3.6 m/s)
Visibility: missing
Ceiling: at least 12,000 feet AGL
Clouds: sky clear below 12,000 feet AGL
Weather: no significant weather observed at this time

METAR text: BGSF 190450Z AUTO 08007KT 9999NDV NCD M15/M19 Q1010
Conditions at: BGSF (SONDRE STROMFJOR, GL) observed 0450 UTC 19 April 2019
Temperature: -15.0°C ( 5°F)
Dewpoint: -19.0°C (-2°F) [RH = 71%]
Pressure (altimeter): 29.82 inches Hg (1010.0 mb)
Winds: from the E (80 degrees) at 8 MPH (7 knots; 3.6 m/s)
Visibility: missing
Ceiling: at least 12,000 feet AGL
Clouds: sky clear below 12,000 feet AGL
Weather: no significant weather observed at this time

METAR text: BGSF 190350Z AUTO 09007KT 9999NDV NCD M14/M19 Q1010
Conditions at: BGSF (SONDRE STROMFJOR, GL) observed 0350 UTC 19 April 2019
Temperature: -14.0°C ( 7°F)
Dewpoint: -19.0°C (-2°F) [RH = 66%]
Pressure (altimeter): 29.82 inches Hg (1010.0 mb)
Winds: from the E (90 degrees) at 8 MPH (7 knots; 3.6 m/s)
Visibility: missing
Ceiling: at least 12,000 feet AGL
Clouds: sky clear below 12,000 feet AGL
Weather: no significant weather observed at this time

METAR text: BGSF 190250Z AUTO 08005KT 9999NDV NCD M14/M18 Q1011
Conditions at: BGSF (SONDRE STROMFJOR, GL) observed 0250 UTC 19 April 2019
Temperature: -14.0°C ( 7°F)
Dewpoint: -18.0°C (-0°F) [RH = 72%]
Pressure (altimeter): 29.85 inches Hg (1011.0 mb)
Winds: from the E (80 degrees) at 6 MPH (5 knots; 2.6 m/s)
Visibility: missing
Ceiling: at least 12,000 feet AGL
Clouds: sky clear below 12,000 feet AGL
Weather: no significant weather observed at this time

METAR text: BGSF 190150Z AUTO 08007KT 9999NDV NCD M13/M18 Q1011
Conditions at: BGSF (SONDRE STROMFJOR, GL) observed 0150 UTC 19 April 2019
Temperature: -13.0°C ( 9°F)
Dewpoint: -18.0°C (-0°F) [RH = 66%]
Pressure (altimeter): 29.85 inches Hg (1011.0 mb)
Winds: from the E (80 degrees) at 8 MPH (7 knots; 3.6 m/s)
Visibility: missing
Ceiling: at least 12,000 feet AGL
Clouds: sky clear below 12,000 feet AGL
Weather: no significant weather observed at this time

METAR text: BGSF 190050Z AUTO 04010KT 9999NDV NCD M12/M18 Q1011
Conditions at: BGSF (SONDRE STROMFJOR, GL) observed 0050 UTC 19 April 2019
Temperature: -12.0°C (10°F)
Dewpoint: -18.0°C (-0°F) [RH = 61%]
Pressure (altimeter): 29.85 inches Hg (1011.0 mb)
Winds: from the NE (40 degrees) at 12 MPH (10 knots; 5.1 m/s)
Visibility: missing
Ceiling: at least 12,000 feet AGL
Clouds: sky clear below 12,000 feet AGL
Weather: no significant weather observed at this time

METAR text: BGSF 182350Z AUTO 03011KT 9999NDV NCD M12/M17 Q1012
Conditions at: BGSF (SONDRE STROMFJOR, GL) observed 2350 UTC 18 April 2019
Temperature: -12.0°C (10°F)
Dewpoint: -17.0°C ( 1°F) [RH = 66%]
Pressure (altimeter): 29.88 inches Hg (1012.0 mb)
Winds: from the NNE (30 degrees) at 13 MPH (11 knots; 5.7 m/s)
Visibility: missing
Ceiling: at least 12,000 feet AGL
Clouds: sky clear below 12,000 feet AGL
Weather: no significant weather observed at this time

METAR text: BGSF 182250Z AUTO 03009KT 9999NDV NCD M11/M17 Q1012
Conditions at: BGSF (SONDRE STROMFJOR, GL) observed 2250 UTC 18 April 2019
Temperature: -11.0°C (12°F)
Dewpoint: -17.0°C ( 1°F) [RH = 61%]
Pressure (altimeter): 29.88 inches Hg (1012.0 mb)
Winds: from the NNE (30 degrees) at 10 MPH (9 knots; 4.6 m/s)
Visibility: missing
Ceiling: at least 12,000 feet AGL
Clouds: sky clear below 12,000 feet AGL
Weather: no significant weather observed at this time

METAR text: BGSF 182150Z AUTO 03009KT 9999NDV NCD M11/M17 Q1011
Conditions at: BGSF (SONDRE STROMFJOR, GL) observed 2150 UTC 18 April 2019
Temperature: -11.0°C (12°F)
Dewpoint: -17.0°C ( 1°F) [RH = 61%]
Pressure (altimeter): 29.85 inches Hg (1011.0 mb)
Winds: from the NNE (30 degrees) at 10 MPH (9 knots; 4.6 m/s)
Visibility: missing
Ceiling: at least 12,000 feet AGL
Clouds: sky clear below 12,000 feet AGL
Weather: no significant weather observed at this time

METAR text: BGSF 182050Z AUTO 04008KT 360V070 9999NDV NCD M09/M17 Q1011
Conditions at: BGSF (SONDRE STROMFJOR, GL) observed 2050 UTC 18 April 2019
Temperature: -9.0°C (16°F)
Dewpoint: -17.0°C ( 1°F) [RH = 52%]
Pressure (altimeter): 29.85 inches Hg (1011.0 mb)
Winds: from the NE (40 degrees) at 9 MPH (8 knots; 4.1 m/s)
Visibility: missing
Ceiling: at least 12,000 feet AGL
Clouds: sky clear below 12,000 feet AGL
Weather: no significant weather observed at this time

METAR text: BGSF 181950Z AUTO 04008KT 010V090 9999NDV NCD M09/M17 Q1011
Conditions at: BGSF (SONDRE STROMFJOR, GL) observed 1950 UTC 18 April 2019
Temperature: -9.0°C (16°F)
Dewpoint: -17.0°C ( 1°F) [RH = 52%]
Pressure (altimeter): 29.85 inches Hg (1011.0 mb)
Winds: from the NE (40 degrees) at 9 MPH (8 knots; 4.1 m/s)
Visibility: missing
Ceiling: at least 12,000 feet AGL
Clouds: sky clear below 12,000 feet AGL
Weather: no significant weather observed at this time

METAR text: BGSF 181850Z AUTO 04006KT 340V090 9999NDV NCD M09/M17 Q1012
Conditions at: BGSF (SONDRE STROMFJOR, GL) observed 1850 UTC 18 April 2019
Temperature: -9.0°C (16°F)
Dewpoint: -17.0°C ( 1°F) [RH = 52%]
Pressure (altimeter): 29.88 inches Hg (1012.0 mb)
Winds: from the NE (40 degrees) at 7 MPH (6 knots; 3.1 m/s)
Visibility: missing
Ceiling: at least 12,000 feet AGL
Clouds: sky clear below 12,000 feet AGL
Weather: no significant weather observed at this time

METAR text: BGSF 181750Z AUTO 06008KT 020V100 9999NDV ///031/// M09/M17 Q1012
Conditions at: BGSF (SONDRE STROMFJOR, GL) observed 1750 UTC 18 April 2019
Temperature: -9.0°C (16°F)
Dewpoint: -17.0°C ( 1°F) [RH = 52%]
Pressure (altimeter): 29.88 inches Hg (1012.0 mb)
Winds: from the ENE (60 degrees) at 9 MPH (8 knots; 4.1 m/s)
Visibility: missing
Ceiling: unknown
Clouds: missing
Weather: no significant weather observed at this time

METAR text: BGSF 181650Z AUTO 05008KT 020V110 9999NDV NCD M09/M16 Q1012
Conditions at: BGSF (SONDRE STROMFJOR, GL) observed 1650 UTC 18 April 2019
Temperature: -9.0°C (16°F)
Dewpoint: -16.0°C ( 3°F) [RH = 57%]
Pressure (altimeter): 29.88 inches Hg (1012.0 mb)
Winds: from the NE (50 degrees) at 9 MPH (8 knots; 4.1 m/s)
Visibility: missing
Ceiling: at least 12,000 feet AGL
Clouds: sky clear below 12,000 feet AGL
Weather: no significant weather observed at this time

METAR text: BGSF 181550Z AUTO 05007KT 340V090 9999NDV FEW030/// M09/M17 Q1013
Conditions at: BGSF (SONDRE STROMFJOR, GL) observed 1550 UTC 18 April 2019
Temperature: -9.0°C (16°F)
Dewpoint: -17.0°C ( 1°F) [RH = 52%]
Pressure (altimeter): 29.91 inches Hg (1013.0 mb)
Winds: from the NE (50 degrees) at 8 MPH (7 knots; 3.6 m/s)
Visibility: missing
Ceiling: at least 12,000 feet AGL
Clouds: few clouds at 3000 feet AGL
Weather: no significant weather observed at this time

METAR text: BGSF 181450Z AUTO 08009KT 040V110 9999NDV FEW030/// M10/M17 Q1014
Conditions at: BGSF (SONDRE STROMFJOR, GL) observed 1450 UTC 18 April 2019
Temperature: -10.0°C (14°F)
Dewpoint: -17.0°C ( 1°F) [RH = 57%]
Pressure (altimeter): 29.94 inches Hg (1014.0 mb)
Winds: from the E (80 degrees) at 10 MPH (9 knots; 4.6 m/s)
Visibility: missing
Ceiling: at least 12,000 feet AGL
Clouds: few clouds at 3000 feet AGL
Weather: no significant weather observed at this time

METAR text: BGSF 181350Z AUTO 07008KT 020V100 9999NDV FEW030/// M10/M18 Q1014
Conditions at: BGSF (SONDRE STROMFJOR, GL) observed 1350 UTC 18 April 2019
Temperature: -10.0°C (14°F)
Dewpoint: -18.0°C (-0°F) [RH = 52%]
Pressure (altimeter): 29.94 inches Hg (1014.0 mb)
Winds: from the ENE (70 degrees) at 9 MPH (8 knots; 4.1 m/s)
Visibility: missing
Ceiling: at least 12,000 feet AGL
Clouds: few clouds at 3000 feet AGL
Weather: no significant weather observed at this time

METAR text: BGSF 181250Z AUTO 03006KT 320V120 9999NDV FEW027/// M11/M18 Q1014
Conditions at: BGSF (SONDRE STROMFJOR, GL) observed 1250 UTC 18 April 2019
Temperature: -11.0°C (12°F)
Dewpoint: -18.0°C (-0°F) [RH = 56%]
Pressure (altimeter): 29.94 inches Hg (1014.0 mb)
Winds: from the NNE (30 degrees) at 7 MPH (6 knots; 3.1 m/s)
Visibility: missing
Ceiling: at least 12,000 feet AGL
Clouds: few clouds at 2700 feet AGL
Weather: no significant weather observed at this time

Forecast for: BGSF (SONDRE STROMFJOR, GL)
Text: TAF BGSF 192249Z 2000/2023 08008KT 9999 FEW200
Forecast period: 0000 to 2300 UTC 20 April 2019
Forecast type: FROM: standard forecast or significant change
Winds: from the E (80 degrees) at 9 MPH (8 knots; 4.1 m/s)
Visibility: 6 or more miles 10+ km)
Ceiling: at least 12,000 feet AGL
Clouds: few clouds at 20000 feet AGL
Weather: no significant weather forecast for this period
Text: PROB40 2020/2023 BKN080
Forecast period: 2000 to 2300 UTC 20 April 2019
Forecast type: PROBABLE: 40 percent likelihood of the following during this time
Visibility: missing
Ceiling: 8000 feet AGL
Clouds: broken clouds at 8000 feet AGL
Weather: no significant weather forecast for this period